PAGINA EN CONSTRUCCIÓN

DISCULPEN POSIBLES FALLOS



Daganzo more information Daganzo


Meteosat more information blitzortung!


Radar lluvias  rain snow radar


Visita nuestra red de sitios de meteo:

Documentation for the template used

MeteoibericaRed estaciones Meteorologicas



Sin Advertencias climatologicas .En este momento tenemos Nivel Verde.    No hay Alarmas

Informes METAR proximidad

   
LEMD - Madrid/Barajas
Actualización: 16-01-2019 18:00
Despejado  
Despejado  
   Viento: WSW 7.4 km/h
Viento: WSW 7.4 km/h
Temperatura: 8°C
Térmica: 7°C
Punto de rocío: 4°C
Humedad: 76%
Baromètro: 1017 hPa
Visibilidad: More than 10 km
detalles de la nube: Despejado
LEMD 161800Z 25004KT 200V290 CAVOK 08/04 Q1017 NOSIG
LEBL - Barcelona/El Prat
Actualización: 16-01-2019 18:00
Parcialmente nublado  
Parcialmente nublado  
   Viento: WSW 14.8 km/h
Viento: WSW 14.8 km/h
Temperatura: 12°C
Punto de rocío: 10°C
Humedad: 88%
Baromètro: 1016 hPa
Nublado: Parcialmente nublado
Visibilidad: More than 10 km
detalles de la nube: Parcialmente nublado 3300 ft
LEBL 161800Z 24008KT 9999 BKN033 12/10 Q1016 NOSIG
LEVC - Valencia
Actualización: 16-01-2019 18:00
Despejado  
Despejado  
   Viento: NNE 9.3 km/h
Viento: NNE 9.3 km/h
Temperatura: 12°C
Punto de rocío: 8°C
Humedad: 77%
Baromètro: 1015 hPa
Visibilidad: More than 10 km
detalles de la nube: Despejado
LEVC 161800Z 03005KT 320V060 CAVOK 12/08 Q1015 NOSIG
LETO - Madrid/Torrejon
Actualización: 16-01-2019 18:00
Despejado  
Despejado  
   Viento: West 7.4 km/h
Viento: West 7.4 km/h
Temperatura: 6°C
Térmica: 4°C
Punto de rocío: 2°C
Humedad: 76%
Baromètro: 1017 hPa
Visibilidad: More than 10 km
detalles de la nube: Despejado
LETO 161800Z 26004KT CAVOK 06/02 Q1017 NOSIG
LEVS - Madrid/Cuatro Vientos
Actualización: 16-01-2019 18:30
Despejado  
Despejado  
   Viento: WSW 13 km/h
Viento: WSW 13 km/h
Temperatura: 4°C
Térmica: 1°C
Punto de rocío: 3°C
Humedad: 93%
Baromètro: 1017 hPa
Visibilidad: More than 10 km
detalles de la nube: Despejado
LEVS 161830Z 25007KT CAVOK 04/03 Q1017
LEGT - Madrid/Getafe
Actualización: 16-01-2019 18:00
Despejado  
Despejado  
   Viento: WSW 11.1 km/h
Viento: WSW 11.1 km/h
Temperatura: 7°C
Térmica: 5°C
Punto de rocío: 3°C
Humedad: 76%
Baromètro: 1017 hPa
Visibilidad: More than 10 km
detalles de la nube: Despejado
LEGT 161800Z 25006KT 220V280 CAVOK 07/03 Q1017
LEVD - Valladolid
Actualización: 16-01-2019 18:30
Nublado  
Nublado  
   Viento: calma
Viento: calma
Temperatura: 3°C
Punto de rocío: 2°C
Humedad: 93%
Baromètro: 1017 hPa
Nublado: Nublado
Visibilidad: 6 km
detalles de la nube: Nublado 1200 ft
LEVD 161830Z 00000KT 6000 OVC012 03/02 Q1017
LEZG - Zaragoza
Actualización: 16-01-2019 18:30
Nublado  
Nublado  
   Viento: West 7.4 km/h
Viento: West 7.4 km/h
Temperatura: 4°C
Térmica: 2°C
Punto de rocío: 4°C
Humedad: 100%
Baromètro: 1018 hPa
Nublado: Nublado
Visibilidad: 7 km
detalles de la nube: Nublado 600 ft
LEZG 161830Z 28004KT 250V330 7000 OVC006 04/04 Q1018
LEVT - Vitoria
Actualización: 16-01-2019 18:30
Nubes dispersas  
Nubes dispersas  
   Viento: SSW 14.8 km/h
Viento: SSW 14.8 km/h
Temperatura: 4°C
Térmica: 1°C
Punto de rocío: 1°C
Humedad: 81%
Baromètro: 1017 hPa
Nublado: Nubes dispersas
Visibilidad: More than 10 km
detalles de la nube: Nubes dispersas 2500 ft
LEVT 161830Z 21008KT 9999 FEW025 04/01 Q1017
LELN - Leon/Virgen del Camino
Actualización: 16-01-2019 18:30
Freezing, Niebla, Nublado  
Freezing, Niebla, Nublado  
   Viento: varía 3.7 km/h
Viento: varía 3.7 km/h
Temperatura: 0°C
Punto de rocío: 0°C
Humedad: 100%
Baromètro: 1017 hPa
Nublado: Nublado
Visibilidad: 0 km
detalles de la nube: Nublado 100 ft
LELN 161830Z VRB02KT 0150 R23/0150N R05/0400N FZFG VV001 M00/M00 Q1017
LEPP - Pamplona/Noain
Actualización: 16-01-2019 18:30
Niebla, Nubes dispersas  
Niebla, Nubes dispersas  
   Viento: SSE 9.3 km/h
Viento: SSE 9.3 km/h
Temperatura: 2°C
Térmica: -1°C
Punto de rocío: 1°C
Humedad: 93%
Baromètro: 1016 hPa
Nublado: Nubes dispersas
Visibilidad: 5 km
detalles de la nube: Nubes dispersas 500 ft
LEPP 161830Z 15005KT 120V200 5000 BR FEW005 02/01 Q1016
LEBB - Bilbao/Sondica
Actualización: 16-01-2019 18:30
Parcialmente Nublado  
Parcialmente Nublado  
   Viento: varía 5.6 km/h
Viento: varía 5.6 km/h
Temperatura: 11°C
Punto de rocío: 3°C
Humedad: 58%
Baromètro: 1017 hPa
Nublado: Parcialmente Nublado
Visibilidad: More than 10 km
detalles de la nube: Parcialmente Nublado 5600 ft,
Parcialmente Nublado 6500 ft
LEBB 161830Z VRB03KT 9999 SCT056 SCT065 11/03 Q1017 NOSIG

Guión original por  Saratoga-weather.org Adaptado para la plantilla por  Weerstation Leuven

Usted encontrará nuestra información del tiempo también en:

WeatherCloud

Weather Underground

Iberian Peninsula Weather Network

AWEKAS

Citizen Weather Observer Program (CWOP)